createdAt,value
2019-01-20T00:00:49.153Z,-4.90
2019-01-20T00:03:42.813Z,-4.90
2019-01-20T00:06:29.353Z,-4.90
2019-01-20T00:09:16.135Z,-4.90
2019-01-20T00:11:54.217Z,-4.90
2019-01-20T00:14:35.998Z,-5.00
2019-01-20T00:17:22.267Z,-5.00
2019-01-20T00:20:03.996Z,-5.00
2019-01-20T00:22:48.651Z,-5.00
2019-01-20T00:25:18.843Z,-5.00
2019-01-20T00:31:43.328Z,-5.10
2019-01-20T00:35:22.302Z,-5.20
2019-01-20T00:41:45.533Z,-5.20
2019-01-20T00:44:23.277Z,-5.20
2019-01-20T00:47:04.184Z,-5.30
2019-01-20T00:49:47.739Z,-5.30
2019-01-20T00:52:26.393Z,-5.30
2019-01-20T01:03:30.520Z,-5.40
2019-01-20T01:06:25.588Z,-5.40
2019-01-20T01:09:23.741Z,-5.50
2019-01-20T01:12:45.613Z,-5.50
2019-01-20T01:15:59.302Z,-5.50
2019-01-20T01:22:26.160Z,-5.60
2019-01-20T01:29:20.199Z,-5.90
2019-01-20T01:35:15.177Z,-5.60
2019-01-20T01:38:18.583Z,-5.70
2019-01-20T01:40:49.175Z,-5.70
2019-01-20T01:43:19.381Z,-5.70
2019-01-20T01:45:50.853Z,-5.70
2019-01-20T01:48:20.824Z,-5.70
2019-01-20T01:50:50.758Z,-5.70
2019-01-20T01:53:21.116Z,-5.80
2019-01-20T01:55:52.749Z,-5.80
2019-01-20T01:58:24.464Z,-5.80
2019-01-20T02:00:58.444Z,-5.80
2019-01-20T02:03:37.466Z,-5.90
2019-01-20T02:06:10.416Z,-5.90
2019-01-20T02:08:41.817Z,-5.90
2019-01-20T02:11:11.852Z,-5.90
2019-01-20T02:13:41.688Z,-5.90
2019-01-20T02:16:12.182Z,-6.00
2019-01-20T02:18:42.650Z,-6.00
2019-01-20T02:21:12.769Z,-6.00
2019-01-20T02:23:43.189Z,-6.00
2019-01-20T02:26:13.193Z,-6.00
2019-01-20T02:28:43.263Z,-6.00
2019-01-20T02:31:13.847Z,-6.10
2019-01-20T02:33:43.699Z,-6.10
2019-01-20T02:36:14.168Z,-6.10
2019-01-20T02:38:44.403Z,-6.10
2019-01-20T02:41:46.064Z,-6.10
2019-01-20T02:44:16.386Z,-6.10
2019-01-20T02:46:46.267Z,-6.10
2019-01-20T02:49:16.227Z,-6.10
2019-01-20T02:51:46.474Z,-6.20
2019-01-20T02:54:16.169Z,-6.20
2019-01-20T02:56:45.940Z,-6.20
2019-01-20T02:59:17.826Z,-6.20
2019-01-20T03:01:48.201Z,-6.20
2019-01-20T03:04:18.474Z,-6.20
2019-01-20T03:06:50.110Z,-6.30
2019-01-20T03:09:19.927Z,-6.30
2019-01-20T03:11:51.274Z,-6.30
2019-01-20T03:14:21.184Z,-6.30
2019-01-20T03:16:50.880Z,-6.30
2019-01-20T03:19:21.823Z,-6.40
2019-01-20T03:21:59.591Z,-6.30
2019-01-20T03:24:39.015Z,-6.30
2019-01-20T03:27:10.264Z,-6.40
2019-01-20T03:29:40.103Z,-6.40
2019-01-20T03:32:10.481Z,-6.40
2019-01-20T03:34:40.788Z,-6.40
2019-01-20T03:37:13.073Z,-6.40
2019-01-20T03:39:42.758Z,-6.40
2019-01-20T03:42:13.097Z,-6.50
2019-01-20T03:44:43.531Z,-6.50
2019-01-20T03:47:13.538Z,-6.50
2019-01-20T03:49:43.329Z,-6.50
2019-01-20T03:52:13.164Z,-6.50
2019-01-20T03:54:42.819Z,-6.50
2019-01-20T03:57:12.501Z,-6.50
2019-01-20T03:59:42.186Z,-6.50
2019-01-20T04:02:12.257Z,-6.50
2019-01-20T04:04:42.998Z,-6.50
2019-01-20T04:07:14.908Z,-6.60
2019-01-20T04:09:45.051Z,-6.50
2019-01-20T04:12:20.450Z,-6.50
2019-01-20T04:14:46.743Z,-6.50
2019-01-20T04:17:17.111Z,-6.50
2019-01-20T04:19:50.986Z,-6.50
2019-01-20T04:22:21.256Z,-6.50
2019-01-20T04:24:51.248Z,-6.50
2019-01-20T04:27:21.124Z,-6.50
2019-01-20T04:29:52.523Z,-6.60
2019-01-20T04:32:22.492Z,-6.50
2019-01-20T04:34:52.301Z,-6.60
2019-01-20T04:37:22.790Z,-6.60
2019-01-20T04:39:52.497Z,-6.60
2019-01-20T04:42:29.024Z,-6.60
2019-01-20T04:44:53.982Z,-6.70
2019-01-20T04:47:23.914Z,-6.70
2019-01-20T04:49:53.648Z,-6.70
2019-01-20T04:52:24.127Z,-6.70
2019-01-20T04:54:54.040Z,-6.80
2019-01-20T04:57:23.818Z,-6.70
2019-01-20T04:59:53.628Z,-6.70
2019-01-20T05:02:24.735Z,-6.80
2019-01-20T05:04:54.638Z,-6.80
2019-01-20T05:07:25.688Z,-6.70
2019-01-20T05:09:55.496Z,-6.80
2019-01-20T05:12:26.427Z,-6.80
2019-01-20T05:14:57.937Z,-6.80
2019-01-20T05:17:27.882Z,-6.80
2019-01-20T05:19:57.793Z,-6.80
2019-01-20T05:22:27.856Z,-6.90
2019-01-20T05:24:58.861Z,-6.80
2019-01-20T05:27:28.751Z,-6.80
2019-01-20T05:29:58.855Z,-6.80
2019-01-20T05:32:29.343Z,-6.80
2019-01-20T05:35:02.059Z,-6.80
2019-01-20T05:37:32.234Z,-6.80
2019-01-20T05:40:02.196Z,-6.80
2019-01-20T05:42:32.558Z,-6.80
2019-01-20T05:45:02.303Z,-6.80
2019-01-20T05:47:32.138Z,-6.80
2019-01-20T05:50:02.062Z,-6.80
2019-01-20T05:52:31.940Z,-6.80
2019-01-20T05:55:04.051Z,-6.70
2019-01-20T05:57:34.252Z,-6.70
2019-01-20T06:00:05.706Z,-6.70
2019-01-20T06:02:35.583Z,-6.70
2019-01-20T06:05:06.566Z,-6.70
2019-01-20T06:07:37.516Z,-6.80
2019-01-20T06:10:09.968Z,-6.80
2019-01-20T06:12:40.267Z,-6.80
2019-01-20T06:15:13.955Z,-6.80
2019-01-20T06:17:45.475Z,-6.80
2019-01-20T06:20:15.973Z,-6.90
2019-01-20T06:22:46.093Z,-6.90
2019-01-20T06:25:15.914Z,-7.00
2019-01-20T06:27:45.983Z,-7.00
2019-01-20T06:30:21.484Z,-7.00
2019-01-20T06:32:51.886Z,-7.00
2019-01-20T06:35:23.261Z,-7.00
2019-01-20T06:37:53.175Z,-7.10
2019-01-20T06:40:23.186Z,-7.10
2019-01-20T06:42:53.585Z,-7.10
2019-01-20T06:45:24.153Z,-7.10
2019-01-20T06:47:56.213Z,-7.20
2019-01-20T06:50:26.114Z,-7.20
2019-01-20T06:52:56.142Z,-7.20
2019-01-20T06:55:26.411Z,-7.20
2019-01-20T06:57:56.580Z,-7.30
2019-01-20T07:00:30.072Z,-7.30
2019-01-20T07:02:59.980Z,-7.30
2019-01-20T07:05:30.032Z,-7.30
2019-01-20T07:08:00.045Z,-7.30
2019-01-20T07:10:31.800Z,-7.40
2019-01-20T07:13:08.887Z,-7.30
2019-01-20T07:15:33.962Z,-7.30
2019-01-20T07:18:04.087Z,-7.30
2019-01-20T07:20:34.458Z,-7.40
2019-01-20T07:23:04.264Z,-7.30
2019-01-20T07:25:34.128Z,-7.40
2019-01-20T07:28:04.185Z,-7.40
2019-01-20T07:30:34.534Z,-7.40
2019-01-20T07:33:05.797Z,-7.30
2019-01-20T07:35:36.158Z,-7.30
2019-01-20T07:38:06.071Z,-7.30
2019-01-20T07:40:36.120Z,-7.30
2019-01-20T07:43:07.227Z,-7.40
2019-01-20T07:45:37.645Z,-7.30
2019-01-20T07:48:07.722Z,-7.40
2019-01-20T07:50:37.628Z,-7.40
2019-01-20T07:53:08.641Z,-7.40
2019-01-20T07:55:38.558Z,-7.40
2019-01-20T07:58:08.428Z,-7.40
2019-01-20T08:00:38.512Z,-7.50
2019-01-20T08:03:08.399Z,-7.40
2019-01-20T08:05:38.341Z,-7.40
2019-01-20T08:08:12.192Z,-7.40
2019-01-20T08:10:44.918Z,-7.40
2019-01-20T08:13:24.027Z,-7.40
2019-01-20T08:15:48.450Z,-7.40
2019-01-20T08:18:18.409Z,-7.40
2019-01-20T08:20:49.012Z,-7.30
2019-01-20T08:23:22.947Z,-7.30
2019-01-20T08:25:53.527Z,-7.30
2019-01-20T08:28:37.804Z,-7.30
2019-01-20T08:31:09.195Z,-7.30
2019-01-20T08:33:47.799Z,-7.20
2019-01-20T08:36:20.875Z,-7.20
2019-01-20T08:38:50.816Z,-7.10
2019-01-20T08:41:22.058Z,-7.00
2019-01-20T08:43:51.800Z,-7.00
2019-01-20T08:46:51.311Z,-6.80
2019-01-20T08:49:22.785Z,-6.70
2019-01-20T08:51:53.377Z,-6.70
2019-01-20T08:54:23.421Z,-6.60
2019-01-20T08:56:53.347Z,-6.50
2019-01-20T08:59:25.850Z,-6.40
2019-01-20T09:01:56.656Z,-6.40
2019-01-20T09:04:28.019Z,-6.30
2019-01-20T09:07:03.427Z,-6.20
2019-01-20T09:09:35.797Z,-6.20
2019-01-20T09:12:06.032Z,-6.10
2019-01-20T09:14:38.610Z,-6.00
2019-01-20T09:17:08.893Z,-5.90
2019-01-20T09:19:39.029Z,-5.70
2019-01-20T09:22:16.631Z,-5.60
2019-01-20T09:24:46.552Z,-5.50
2019-01-20T09:27:20.066Z,-5.40
2019-01-20T09:29:51.611Z,-5.30
2019-01-20T09:32:21.705Z,-5.20
2019-01-20T09:34:53.190Z,-5.20
2019-01-20T09:37:23.086Z,-5.10
2019-01-20T09:39:56.391Z,-5.10
2019-01-20T09:42:37.580Z,-5.00
2019-01-20T09:45:11.361Z,-5.00
2019-01-20T09:47:48.166Z,-4.90
2019-01-20T09:50:20.518Z,-4.80
2019-01-20T09:52:51.382Z,-4.70
2019-01-20T09:55:21.434Z,-4.60
2019-01-20T09:57:51.656Z,-4.50
2019-01-20T10:00:28.501Z,-4.40
2019-01-20T10:02:59.259Z,-4.30
2019-01-20T10:05:31.139Z,-4.20
2019-01-20T10:08:00.654Z,-4.10
2019-01-20T10:10:33.239Z,-4.00
2019-01-20T10:13:13.424Z,-4.00
2019-01-20T10:15:43.581Z,-3.90
2019-01-20T10:18:21.109Z,-3.80
2019-01-20T10:20:56.059Z,-3.70
2019-01-20T10:23:39.544Z,-3.60
2019-01-20T10:26:08.589Z,-3.50
2019-01-20T10:28:38.516Z,-3.40
2019-01-20T10:31:09.081Z,-3.40
2019-01-20T10:33:47.474Z,-3.30
2019-01-20T10:36:17.681Z,-3.30
2019-01-20T10:38:58.955Z,-3.30
2019-01-20T10:41:29.014Z,-3.20
2019-01-20T10:44:02.304Z,-3.20
2019-01-20T10:46:31.037Z,-3.00
2019-01-20T10:49:02.908Z,-3.00
2019-01-20T10:51:32.600Z,-2.80
2019-01-20T10:54:08.010Z,-2.70
2019-01-20T10:56:40.155Z,-2.60
2019-01-20T10:59:26.139Z,-2.50
2019-01-20T11:01:55.534Z,-2.50
2019-01-20T11:04:36.508Z,-2.40
2019-01-20T11:07:06.866Z,-2.40
2019-01-20T11:09:40.521Z,-2.40
2019-01-20T11:12:11.141Z,-2.40
2019-01-20T11:14:41.129Z,-2.30
2019-01-20T11:17:11.888Z,-2.30
2019-01-20T11:19:54.768Z,-2.30
2019-01-20T11:22:28.481Z,-2.20
2019-01-20T11:25:00.176Z,-2.10
2019-01-20T11:27:34.284Z,-2.10
2019-01-20T11:30:05.452Z,-2.00
2019-01-20T11:33:02.590Z,-2.00
2019-01-20T11:35:31.165Z,-1.90
2019-01-20T11:38:09.722Z,-1.80
2019-01-20T11:40:41.767Z,-1.80
2019-01-20T11:43:21.745Z,-1.80
2019-01-20T11:45:55.598Z,-1.80
2019-01-20T11:48:38.716Z,-1.70
2019-01-20T11:51:16.715Z,-1.60
2019-01-20T11:53:46.880Z,-1.50
2019-01-20T11:56:24.389Z,-1.50
2019-01-20T11:58:55.206Z,-1.40
2019-01-20T12:01:27.105Z,-1.30
2019-01-20T12:04:10.865Z,-1.20
2019-01-20T12:06:43.435Z,-1.20
2019-01-20T12:09:41.651Z,-1.10
2019-01-20T12:12:11.702Z,-1.10
2019-01-20T12:14:41.831Z,-1.00
2019-01-20T12:17:13.350Z,-1.00
2019-01-20T12:19:50.712Z,-1.00
2019-01-20T12:22:23.442Z,-0.90
2019-01-20T12:24:57.287Z,-0.80
2019-01-20T12:27:30.355Z,-0.70
2019-01-20T12:30:08.514Z,-0.70
2019-01-20T12:32:38.202Z,-0.60
2019-01-20T12:35:08.409Z,-0.50
2019-01-20T12:37:38.524Z,-0.40
2019-01-20T12:40:14.159Z,-0.40
2019-01-20T12:42:45.684Z,-0.40
2019-01-20T12:45:15.812Z,-0.30
2019-01-20T12:48:20.507Z,-0.30
2019-01-20T12:50:50.641Z,-0.30
2019-01-20T12:53:20.673Z,-0.30
2019-01-20T12:55:52.413Z,-0.20
2019-01-20T12:58:23.790Z,-0.20
2019-01-20T13:00:53.754Z,-0.20
2019-01-20T13:03:24.183Z,-0.20
2019-01-20T13:06:04.252Z,-0.20
2019-01-20T13:08:34.087Z,-0.20
2019-01-20T13:11:08.588Z,-0.10
2019-01-20T13:13:48.054Z,-0.20
2019-01-20T13:16:18.493Z,-0.20
2019-01-20T13:19:15.825Z,-0.20
2019-01-20T13:21:45.612Z,-0.10
2019-01-20T13:24:16.322Z,-0.10
2019-01-20T13:26:48.100Z,-0.10
2019-01-20T13:29:18.409Z,-0.10
2019-01-20T13:31:57.202Z,0.00
2019-01-20T13:34:27.166Z,0.00
2019-01-20T13:37:05.729Z,0.00
2019-01-20T13:39:36.851Z,-0.10
2019-01-20T13:42:17.957Z,-0.10
2019-01-20T13:44:50.868Z,-0.10
2019-01-20T13:47:21.033Z,-0.10
2019-01-20T13:49:59.609Z,0.00
2019-01-20T13:52:29.949Z,0.00
2019-01-20T13:55:09.120Z,0.00
2019-01-20T13:57:40.245Z,0.10
2019-01-20T14:00:14.531Z,0.10
2019-01-20T14:02:44.179Z,0.00
2019-01-20T14:05:16.670Z,0.10
2019-01-20T14:07:47.375Z,0.10
2019-01-20T14:10:20.192Z,0.20
2019-01-20T14:12:56.479Z,0.30
2019-01-20T14:15:26.982Z,0.20
2019-01-20T14:18:05.963Z,0.20
2019-01-20T14:20:36.730Z,0.20
2019-01-20T14:23:07.345Z,0.20
2019-01-20T14:25:37.396Z,0.30
2019-01-20T14:28:09.032Z,0.30
2019-01-20T14:30:38.673Z,0.30
2019-01-20T14:33:09.389Z,0.30
2019-01-20T14:35:43.128Z,0.30
2019-01-20T14:38:18.522Z,0.30
2019-01-20T14:40:52.486Z,0.30
2019-01-20T14:43:27.353Z,0.30
2019-01-20T14:45:57.613Z,0.30
2019-01-20T14:48:28.785Z,0.30
2019-01-20T14:51:02.521Z,0.30
2019-01-20T14:53:42.831Z,0.30
2019-01-20T14:56:12.616Z,0.30
2019-01-20T14:58:50.274Z,0.30
2019-01-20T15:01:19.868Z,0.30
2019-01-20T15:03:49.836Z,0.20
2019-01-20T15:06:24.732Z,0.20
2019-01-20T15:08:55.657Z,0.10
2019-01-20T15:11:25.575Z,0.00
2019-01-20T15:13:56.280Z,-0.10
2019-01-20T15:16:28.806Z,-0.10
2019-01-20T15:19:00.178Z,-0.10
2019-01-20T15:21:39.186Z,-0.20
2019-01-20T15:24:14.512Z,-0.30
2019-01-20T15:26:47.445Z,-0.30
2019-01-20T15:29:30.875Z,-0.30
2019-01-20T15:32:01.808Z,-0.40
2019-01-20T15:34:32.531Z,-0.50
2019-01-20T15:37:19.088Z,-0.50
2019-01-20T15:39:52.188Z,-0.60
2019-01-20T15:42:25.121Z,-0.70
2019-01-20T15:44:55.388Z,-0.80
2019-01-20T15:47:34.300Z,-0.80
2019-01-20T15:50:05.381Z,-0.90
2019-01-20T15:52:45.445Z,-1.00
2019-01-20T15:55:15.530Z,-1.10
2019-01-20T15:57:48.143Z,-1.00
2019-01-20T16:00:24.168Z,-1.20
2019-01-20T16:02:56.550Z,-1.30
2019-01-20T16:05:28.298Z,-1.40
2019-01-20T16:07:59.683Z,-1.40
2019-01-20T16:10:37.198Z,-1.40
2019-01-20T16:13:07.162Z,-1.50
2019-01-20T16:15:42.562Z,-1.50
2019-01-20T16:18:18.543Z,-1.50
2019-01-20T16:20:52.700Z,-1.50
2019-01-20T16:23:36.864Z,-1.50
2019-01-20T16:26:10.469Z,-1.50
2019-01-20T16:28:43.862Z,-1.50
2019-01-20T16:31:14.169Z,-1.60
2019-01-20T16:33:44.514Z,-1.70
2019-01-20T16:36:14.601Z,-1.80
2019-01-20T16:38:53.246Z,-1.80
2019-01-20T16:41:27.449Z,-1.90
2019-01-20T16:43:58.235Z,-1.90
2019-01-20T16:46:28.479Z,-2.00
2019-01-20T16:49:07.087Z,-2.10
2019-01-20T16:51:38.059Z,-2.10
2019-01-20T16:54:19.383Z,-2.20
2019-01-20T16:56:49.573Z,-2.20
2019-01-20T16:59:25.792Z,-2.20
2019-01-20T17:01:56.409Z,-2.30
2019-01-20T17:04:27.378Z,-2.30
2019-01-20T17:07:07.972Z,-2.40
2019-01-20T17:09:42.128Z,-2.40
2019-01-20T17:12:12.354Z,-2.50
2019-01-20T17:14:43.972Z,-2.50
2019-01-20T17:17:14.533Z,-2.50
2019-01-20T17:19:54.107Z,-2.60
2019-01-20T17:22:24.486Z,-2.60
2019-01-20T17:24:55.846Z,-2.70
2019-01-20T17:27:27.858Z,-2.70
2019-01-20T17:29:57.494Z,-2.80
2019-01-20T17:32:33.194Z,-2.80
2019-01-20T17:35:12.068Z,-2.80
2019-01-20T17:37:43.690Z,-2.90
2019-01-20T17:40:32.557Z,-2.90
2019-01-20T17:43:04.020Z,-3.00
2019-01-20T17:45:38.174Z,-3.00
2019-01-20T17:48:08.179Z,-3.10
2019-01-20T17:50:40.255Z,-3.10
2019-01-20T17:53:12.963Z,-3.10
2019-01-20T17:55:48.307Z,-3.20
2019-01-20T17:58:23.876Z,-3.20
2019-01-20T18:01:03.225Z,-3.20
2019-01-20T18:03:33.441Z,-3.20
2019-01-20T18:06:08.727Z,-3.30
2019-01-20T18:08:39.358Z,-3.30
2019-01-20T18:11:09.721Z,-3.40
2019-01-20T18:13:55.485Z,-3.40
2019-01-20T18:16:25.484Z,-3.40
2019-01-20T18:18:55.533Z,-3.40
2019-01-20T18:21:44.443Z,-3.50
2019-01-20T18:24:17.101Z,-3.50
2019-01-20T18:26:46.808Z,-3.50
2019-01-20T18:29:28.382Z,-3.60
2019-01-20T18:31:58.415Z,-3.60
2019-01-20T18:34:32.415Z,-3.60
2019-01-20T18:37:05.265Z,-3.70
2019-01-20T18:39:35.604Z,-3.70
2019-01-20T18:42:05.415Z,-3.70
2019-01-20T18:44:41.386Z,-3.70
2019-01-20T18:47:18.829Z,-3.80
2019-01-20T18:49:58.789Z,-3.80
2019-01-20T18:52:31.480Z,-3.90
2019-01-20T18:55:03.868Z,-3.90
2019-01-20T18:57:45.360Z,-3.90
2019-01-20T19:00:27.401Z,-3.90
2019-01-20T19:02:59.171Z,-3.90
2019-01-20T19:05:32.457Z,-4.00
2019-01-20T19:08:02.808Z,-4.10
2019-01-20T19:10:32.934Z,-4.10
2019-01-20T19:13:07.135Z,-4.20
2019-01-20T19:15:41.972Z,-4.20
2019-01-20T19:19:02.584Z,-4.20
2019-01-20T19:20:51.016Z,-4.20
2019-01-20T19:23:23.221Z,-4.30
2019-01-20T19:25:59.002Z,-4.30
2019-01-20T19:28:29.379Z,-4.30
2019-01-20T19:31:00.019Z,-4.30
2019-01-20T19:33:31.696Z,-4.40
2019-01-20T19:36:06.554Z,-4.40
2019-01-20T19:38:43.530Z,-4.40
2019-01-20T19:41:10.675Z,-4.50
2019-01-20T19:43:48.148Z,-4.50
2019-01-20T19:46:18.095Z,-4.60
2019-01-20T19:48:47.956Z,-4.60
2019-01-20T19:51:17.859Z,-4.60
2019-01-20T19:53:52.298Z,-4.60
2019-01-20T19:56:22.549Z,-4.70
2019-01-20T19:58:55.625Z,-4.70
2019-01-20T20:01:30.712Z,-4.80
2019-01-20T20:03:59.480Z,-4.80
2019-01-20T20:06:39.409Z,-4.80
2019-01-20T20:09:16.672Z,-4.80
2019-01-20T20:11:50.027Z,-4.80
2019-01-20T20:14:33.376Z,-4.90
2019-01-20T20:17:09.710Z,-4.90
2019-01-20T20:19:43.136Z,-4.90
2019-01-20T20:22:14.239Z,-5.00
2019-01-20T20:24:49.940Z,-5.00
2019-01-20T20:27:23.809Z,-5.00
2019-01-20T20:29:54.570Z,-5.00
2019-01-20T20:32:25.429Z,-5.00
2019-01-20T20:34:55.523Z,-5.00
2019-01-20T20:37:41.174Z,-5.10
2019-01-20T20:40:13.192Z,-5.10
2019-01-20T20:42:53.492Z,-5.10
2019-01-20T20:45:27.346Z,-5.20
2019-01-20T20:48:03.179Z,-5.20
2019-01-20T20:50:35.990Z,-5.20
2019-01-20T20:53:06.811Z,-5.30
2019-01-20T20:55:38.438Z,-5.30
2019-01-20T20:58:19.338Z,-5.40
2019-01-20T21:00:52.928Z,-5.40
2019-01-20T21:03:31.776Z,-5.40
2019-01-20T21:06:01.991Z,-5.50
2019-01-20T21:08:32.721Z,-5.50
2019-01-20T21:11:03.024Z,-5.50
2019-01-20T21:13:37.653Z,-5.50
2019-01-20T21:16:07.825Z,-5.60
2019-01-20T21:18:45.371Z,-5.60
2019-01-20T21:21:15.774Z,-5.60
2019-01-20T21:23:47.950Z,-5.60
2019-01-20T21:26:18.433Z,-5.60
2019-01-20T21:28:48.576Z,-5.60
2019-01-20T21:31:18.590Z,-5.60
2019-01-20T21:33:48.586Z,-5.60
2019-01-20T21:36:18.886Z,-5.70
2019-01-20T21:38:49.247Z,-5.80
2019-01-20T21:41:19.477Z,-5.80
2019-01-20T21:43:49.806Z,-5.80
2019-01-20T21:46:23.360Z,-5.90
2019-01-20T21:48:53.112Z,-5.90
2019-01-20T21:51:22.809Z,-5.90
2019-01-20T21:53:56.039Z,-5.90
2019-01-20T21:56:28.122Z,-5.90
2019-01-20T21:58:58.072Z,-5.90
2019-01-20T22:01:44.387Z,-6.00
2019-01-20T22:04:20.172Z,-6.00
2019-01-20T22:06:51.887Z,-6.10
2019-01-20T22:09:22.106Z,-6.10
2019-01-20T22:11:51.987Z,-6.10
2019-01-20T22:14:27.906Z,-6.10
2019-01-20T22:16:57.843Z,-6.10
2019-01-20T22:19:27.856Z,-6.20
2019-01-20T22:22:06.358Z,-6.20
2019-01-20T22:24:39.002Z,-6.20
2019-01-20T22:27:11.516Z,-6.20
2019-01-20T22:29:41.828Z,-6.20
2019-01-20T22:32:11.962Z,-6.30
2019-01-20T22:34:42.230Z,-6.30
2019-01-20T22:37:12.374Z,-6.30
2019-01-20T22:39:47.151Z,-6.40
2019-01-20T22:42:14.276Z,-6.40
2019-01-20T22:44:44.468Z,-6.50
2019-01-20T22:47:14.176Z,-6.50
2019-01-20T22:49:44.128Z,-6.50
2019-01-20T22:52:22.600Z,-6.50
2019-01-20T22:54:53.990Z,-6.50
2019-01-20T22:57:23.987Z,-6.50
2019-01-20T22:59:54.050Z,-6.50
2019-01-20T23:02:24.446Z,-6.50
2019-01-20T23:04:54.502Z,-6.40
2019-01-20T23:07:25.890Z,-6.40
2019-01-20T23:09:58.625Z,-6.50
2019-01-20T23:12:28.291Z,-6.50
2019-01-20T23:14:58.090Z,-6.50
2019-01-20T23:17:28.171Z,-6.60
2019-01-20T23:19:58.157Z,-6.60
2019-01-20T23:22:30.743Z,-6.60
2019-01-20T23:25:10.911Z,-6.60
2019-01-20T23:27:43.075Z,-6.60
2019-01-20T23:30:21.463Z,-6.60
2019-01-20T23:32:51.468Z,-6.60
2019-01-20T23:35:22.046Z,-6.60
2019-01-20T23:38:14.558Z,-6.70
2019-01-20T23:40:23.190Z,-6.70
2019-01-20T23:42:52.921Z,-6.70
2019-01-20T23:45:23.110Z,-6.80
2019-01-20T23:47:53.842Z,-6.90
2019-01-20T23:50:24.431Z,-6.90
2019-01-20T23:52:54.372Z,-6.90
2019-01-20T23:55:30.191Z,-6.90
2019-01-20T23:58:00.274Z,-6.90
